Time;durP1;ratioP1;P1;durP2;ratioP2;P2;SDS_P1;SDS_P2;PMS_P1;PMS_P2;Temp;Humidity;BMP_temperature;BMP_pressure;BME280_temperature;BME280_humidity;BME280_pressure;Samples;Min_cycle;Max_cycle;Signal;HPM_P1;HPM_P2
2023/09/16 05:18:06;;;;;;;;;;;;;;;;;;5039351;28;19928;-52
2023/09/16 05:20:32;;;;;;;;;;;;;;;;;;5050421;28;19917;-50
2023/09/16 05:22:58;;;;;;;;;;;;;;;;;;5050195;28;19916;-52
2023/09/16 05:25:23;;;;;;;;;;;;;;;;;;5049954;28;19955;-51
2023/09/16 05:27:49;;;;;;;;;;;;;;;;;;5050128;28;20378;-51
2023/09/16 05:30:15;;;;;;;;;;;;;;;;;;5050151;28;19948;-50
2023/09/16 05:32:41;;;;;;;;;;;;;;;;;;5050512;28;20030;-52
2023/09/16 05:35:07;;;;;;;;;;;;;;;;;;5049927;28;19909;-51
2023/09/16 05:37:33;;;;;;;;;;;;;;;;;;5050065;28;19912;-52
2023/09/16 05:39:59;;;;;;;;;;;;;;;;;;5049725;28;19912;-51
2023/09/16 05:42:25;;;;;;;;;;;;;;;;;;5050174;28;20401;-49
2023/09/16 05:44:51;;;;;;;;;;;;;;;;;;5049165;28;19962;-49
2023/09/16 05:47:17;;;;;;;;;;;;;;;;;;5050739;28;19920;-52
2023/09/16 05:49:43;;;;;;;;;;;;;;;;;;5038403;28;20326;-48
2023/09/16 05:52:10;;;;;;;;;;;;;;;;;;5051338;28;19917;-52
2023/09/16 05:54:35;;;;;;;;;;;;;;;;;;5050730;28;20356;-50
2023/09/16 05:57:01;;;;;;;;;;;;;;;;;;5050626;28;19909;-49
2023/09/16 05:59:27;;;;;;;;;;;;;;;;;;5051032;28;19916;-50
2023/09/16 06:01:53;;;;;;;;;;;;;;;;;;5050244;28;20003;-52
2023/09/16 06:04:19;;;;;;;;;;;;;;;;;;5050970;28;19952;-52
2023/09/16 06:06:45;;;;;;;;;;;;;;;;;;5038339;28;19909;-49
2023/09/16 06:09:11;;;;;;;;;;;;;;;;;;5050383;28;19913;-48
2023/09/16 06:11:37;;;;;;;;;;;;;;;;;;5050405;28;19909;-49
2023/09/16 06:14:03;;;;;;;;;;;;;;;;;;5049740;28;19916;-51
2023/09/16 06:16:29;;;;;;;;;;;;;;;;;;5050488;28;20328;-48
2023/09/16 06:18:55;;;;;;;;;;;;;;;;;;5050631;28;19921;-51
2023/09/16 06:21:21;;;;;;;;;;;;;;;;;;5048979;28;19912;-49
2023/09/16 06:23:47;;;;;;;;;;;;;;;;;;5050426;28;20256;-50
2023/09/16 06:26:13;;;;;;;;;;;;;;;;;;5049546;28;19909;-50
2023/09/16 06:28:39;;;;;;;;;;;;;;;;;;5048775;28;19979;-52
2023/09/16 06:31:05;;;;;;;;;;;;;;;;;;5049727;28;19940;-49
2023/09/16 06:33:31;;;;;;;;;;;;;;;;;;5049118;28;19963;-52
2023/09/16 06:35:57;;;;;;;;;;;;;;;;;;5048377;28;19909;-51
2023/09/16 06:38:22;;;;;;;;;;;;;;;;;;5048958;28;20406;-48
2023/09/16 06:40:48;;;;;;;;;;;;;;;;;;5049009;28;19919;-51
2023/09/16 06:43:14;;;;;;;;;;;;;;;;;;5049508;28;20322;-50
2023/09/16 06:45:40;;;;;;;;;;;;;;;;;;5049663;28;19908;-50
2023/09/16 06:48:06;;;;;;;;;;;;;;;;;;5050491;28;19909;-49
2023/09/16 06:50:32;;;;;;;;;;;;;;;;;;5050421;28;19916;-49
2023/09/16 06:52:58;;;;;;;;;;;;;;;;;;5050047;28;19920;-48
2023/09/16 06:55:24;;;;;;;;;;;;;;;;;;5050299;28;19909;-49
2023/09/16 06:57:49;;;;;;;;;;;;;;;;;;5049820;28;19909;-52
2023/09/16 07:00:15;;;;;;;;;;;;;;;;;;5049280;28;19955;-49
2023/09/16 07:02:41;;;;;;;;;;;;;;;;;;5050578;28;20349;-50
2023/09/16 07:05:07;;;;;;;;;;;;;;;;;;5050050;28;19916;-51
2023/09/16 07:07:33;;;;;;;;;;;;;;;;;;5049415;28;19909;-52
2023/09/16 07:09:59;;;;;;;;;;;;;;;;;;5049746;28;19913;-50
2023/09/16 07:12:25;;;;;;;;;;;;;;;;;;5049406;28;19909;-48
2023/09/16 07:14:51;;;;;;;;;;;;;;;;;;5049154;28;19917;-49
2023/09/16 07:17:17;;;;;;;;;;;;;;;;;;5049468;28;20263;-52
2023/09/16 07:19:42;;;;;;;;;;;;;;;;;;5050039;28;20420;-50
2023/09/16 07:22:08;;;;;;;;;;;;;;;;;;5049869;28;19920;-49
2023/09/16 07:24:34;;;;;;;;;;;;;;;;;;5042257;28;19932;-50
2023/09/16 07:27:01;;;;;;;;;;;;;;;;;;5039619;28;19913;-51
2023/09/16 07:29:27;;;;;;;;;;;;;;;;;;5035534;28;20000;-49
2023/09/16 07:31:53;;;;;;;;;;;;;;;;;;5028806;28;19917;-48
2023/09/16 07:34:21;;;;;;;;;;;;;;;;;;5028949;28;19917;-50
2023/09/16 07:36:47;;;;;;;;;;;;;;;;;;5028314;28;19909;-50
2023/09/16 07:39:13;;;;;;;;;;;;;;;;;;5036756;28;19920;-49
2023/09/16 07:41:39;;;;;;;;;;;;;;;;;;5046775;28;19965;-49
2023/09/16 07:44:05;;;;;;;;;;;;;;;;;;5048570;28;19939;-52
2023/09/16 07:46:31;;;;;;;;;;;;;;;;;;5048813;28;20138;-53
2023/09/16 07:48:57;;;;;;;;;;;;;;;;;;5050032;28;19909;-51
2023/09/16 07:51:23;;;;;;;;;;;;;;;;;;5052033;28;19909;-50
2023/09/16 07:53:48;;;;;;;;;;;;;;;;;;5052449;28;19917;-50
2023/09/16 07:56:18;;;;;;;;;;;;;;;;;;5052086;28;20213;-51
2023/09/16 07:58:44;;;;;;;;;;;;;;;;;;5052181;28;19905;-52
2023/09/16 08:01:09;;;;;;;;;;;;;;;;;;5032189;28;19993;-52
2023/09/16 08:03:37;;;;;;;;;;;;;;;;;;5032172;28;19921;-53
2023/09/16 08:06:03;;;;;;;;;;;;;;;;;;5032627;28;20372;-51
2023/09/16 08:08:29;;;;;;;;;;;;;;;;;;5031990;28;19909;-51
2023/09/16 08:10:55;;;;;;;;;;;;;;;;;;5032935;28;19913;-53
2023/09/16 08:13:21;;;;;;;;;;;;;;;;;;5031455;28;19913;-50
2023/09/16 08:15:46;;;;;;;;;;;;;;;;;;5031802;28;19956;-54
2023/09/16 08:18:12;;;;;;;;;;;;;;;;;;5031822;28;20292;-52
2023/09/16 08:20:38;;;;;;;;;;;;;;;;;;5031676;28;19913;-50
2023/09/16 08:23:04;;;;;;;;;;;;;;;;;;5038142;28;19912;-53
2023/09/16 08:25:30;;;;;;;;;;;;;;;;;;5051208;28;19913;-51
2023/09/16 08:27:56;;;;;;;;;;;;;;;;;;5051216;28;19915;-51
2023/09/16 08:30:22;;;;;;;;;;;;;;;;;;5027929;28;20406;-49
2023/09/16 08:32:48;;;;;;;;;;;;;;;;;;5031077;28;19909;-51
2023/09/16 08:35:14;;;;;;;;;;;;;;;;;;5031662;28;19909;-50
2023/09/16 08:37:39;;;;;;;;;;;;;;;;;;5030902;28;19941;-53
2023/09/16 08:40:05;;;;;;;;;;;;;;;;;;5031344;28;19913;-50
2023/09/16 08:42:33;;;;;;;;;;;;;;;;;;5031437;28;20346;-52
2023/09/16 08:44:59;;;;;;;;;;;;;;;;;;5031501;28;20502;-52
2023/09/16 08:47:25;;;;;;;;;;;;;;;;;;5031085;28;19948;-52
2023/09/16 08:49:51;;;;;;;;;;;;;;;;;;5031190;28;19909;-53
2023/09/16 08:52:17;;;;;;;;;;;;;;;;;;5031145;28;19909;-52
2023/09/16 08:54:42;;;;;;;;;;;;;;;;;;5031021;28;19936;-52
2023/09/16 08:57:08;;;;;;;;;;;;;;;;;;5030821;28;19917;-50
2023/09/16 08:59:36;;;;;;;;;;;;;;;;;;5030767;28;19909;-52
2023/09/16 09:02:02;;;;;;;;;;;;;;;;;;5030732;28;19909;-50
2023/09/16 09:04:27;;;;;;;;;;;;;;;;;;5030819;28;19916;-53
2023/09/16 09:06:53;;;;;;;;;;;;;;;;;;5030752;28;19909;-53
2023/09/16 09:09:19;;;;;;;;;;;;;;;;;;5034361;28;20004;-53
2023/09/16 09:11:45;;;;;;;;;;;;;;;;;;5050501;28;19908;-53
2023/09/16 09:14:11;;;;;;;;;;;;;;;;;;5050821;28;19913;-53
2023/09/16 09:16:37;;;;;;;;;;;;;;;;;;5049821;28;19909;-53
2023/09/16 09:19:03;;;;;;;;;;;;;;;;;;5048745;28;19917;-52
2023/09/16 09:21:29;;;;;;;;;;;;;;;;;;5050583;28;19916;-53
2023/09/16 09:23:57;;;;;;;;;;;;;;;;;;5050063;28;19905;-53
2023/09/16 09:26:23;;;;;;;;;;;;;;;;;;5050419;28;19919;-50
2023/09/16 09:28:49;;;;;;;;;;;;;;;;;;5050053;28;20381;-53
2023/09/16 09:31:15;;;;;;;;;;;;;;;;;;5050664;28;19908;-54
2023/09/16 09:33:41;;;;;;;;;;;;;;;;;;5049881;28;19919;-53
2023/09/16 09:36:07;;;;;;;;;;;;;;;;;;5050283;28;19992;-51
2023/09/16 09:38:33;;;;;;;;;;;;;;;;;;5049938;28;19905;-55
2023/09/16 09:40:58;;;;;;;;;;;;;;;;;;5049968;28;20003;-54
2023/09/16 09:43:24;;;;;;;;;;;;;;;;;;5049928;28;20283;-55
2023/09/16 09:45:50;;;;;;;;;;;;;;;;;;5049951;28;20279;-54
2023/09/16 09:48:16;;;;;;;;;;;;;;;;;;5049862;28;19908;-51
2023/09/16 09:50:42;;;;;;;;;;;;;;;;;;5050141;28;19909;-54
2023/09/16 09:53:08;;;;;;;;;;;;;;;;;;5049682;28;19960;-53
2023/09/16 09:55:34;;;;;;;;;;;;;;;;;;5050044;28;20287;-55
2023/09/16 09:58:00;;;;;;;;;;;;;;;;;;5049455;28;19909;-54
2023/09/16 10:00:26;;;;;;;;;;;;;;;;;;5049916;28;19909;-55
2023/09/16 10:02:52;;;;;;;;;;;;;;;;;;5049244;28;19909;-54
2023/09/16 10:05:20;;;;;;;;;;;;;;;;;;5049436;28;19912;-54
2023/09/16 10:07:46;;;;;;;;;;;;;;;;;;5049282;28;20469;-53
2023/09/16 10:10:11;;;;;;;;;;;;;;;;;;5049844;28;19971;-54
2023/09/16 10:12:37;;;;;;;;;;;;;;;;;;5048905;28;19912;-55
2023/09/16 10:15:03;;;;;;;;;;;;;;;;;;5049465;28;20377;-54
2023/09/16 10:17:29;;;;;;;;;;;;;;;;;;5049158;28;19919;-55
2023/09/16 10:19:55;;;;;;;;;;;;;;;;;;5049447;28;19913;-54
2023/09/16 10:22:21;;;;;;;;;;;;;;;;;;5049790;28;19923;-54
2023/09/16 10:24:47;;;;;;;;;;;;;;;;;;5049136;28;20414;-53
2023/09/16 10:27:13;;;;;;;;;;;;;;;;;;5049669;28;19915;-54
2023/09/16 10:29:39;;;;;;;;;;;;;;;;;;5049401;28;20390;-54
2023/09/16 10:32:05;;;;;;;;;;;;;;;;;;5049325;28;19909;-54
2023/09/16 10:34:31;;;;;;;;;;;;;;;;;;5048945;28;19913;-54
2023/09/16 10:36:57;;;;;;;;;;;;;;;;;;5048643;28;20379;-54
2023/09/16 10:39:23;;;;;;;;;;;;;;;;;;5049242;28;19913;-54
2023/09/16 10:41:49;;;;;;;;;;;;;;;;;;5047159;28;20300;-54
2023/09/16 10:44:15;;;;;;;;;;;;;;;;;;5049308;28;19951;-53
2023/09/16 10:46:41;;;;;;;;;;;;;;;;;;5049297;28;19966;-54
2023/09/16 10:49:07;;;;;;;;;;;;;;;;;;5048903;28;19915;-54
2023/09/16 10:51:32;;;;;;;;;;;;;;;;;;5049263;28;20291;-55
2023/09/16 10:53:58;;;;;;;;;;;;;;;;;;5045608;28;19970;-55
2023/09/16 10:56:24;;;;;;;;;;;;;;;;;;5041715;28;20376;-55
2023/09/16 10:58:50;;;;;;;;;;;;;;;;;;5041464;28;19916;-55
2023/09/16 11:01:17;;;;;;;;;;;;;;;;;;5039377;28;19956;-55
2023/09/16 11:03:42;;;;;;;;;;;;;;;;;;5038943;28;19908;-55
2023/09/16 11:06:08;;;;;;;;;;;;;;;;;;5050243;28;20390;-55
2023/09/16 11:08:34;;;;;;;;;;;;;;;;;;5046739;28;19916;-55
2023/09/16 11:11:00;;;;;;;;;;;;;;;;;;5049032;28;19912;-55
2023/09/16 11:13:26;;;;;;;;;;;;;;;;;;5047005;28;19952;-55
2023/09/16 11:15:52;;;;;;;;;;;;;;;;;;5046570;28;19923;-55
2023/09/16 11:18:18;;;;;;;;;;;;;;;;;;5046447;28;19916;-56
2023/09/16 11:20:43;;;;;;;;;;;;;;;;;;5047279;28;19963;-56
2023/09/16 11:23:09;;;;;;;;;;;;;;;;;;5048306;28;19947;-56
2023/09/16 11:25:35;;;;;;;;;;;;;;;;;;5050225;28;19916;-56
2023/09/16 11:28:02;;;;;;;;;;;;;;;;;;5049970;28;20436;-56
2023/09/16 11:30:28;;;;;;;;;;;;;;;;;;5049757;28;19987;-56
2023/09/16 11:43:17;;;;;;;;;;;;;;;;;;6088439;22;20925;-46
2023/09/16 11:45:43;;;;;;;;;;;;;;;;;;5048391;28;20398;-43
2023/09/16 11:48:09;;;;;;;;;;;;;;;;;;5049015;28;20054;-44
2023/09/16 11:50:35;;;;;;;;;;;;;;;;;;5048735;28;20367;-44
2023/09/16 11:53:01;;;;;;;;;;;;;;;;;;5048666;28;19909;-44
2023/09/16 11:55:26;;;;;;;;;;;;;;;;;;5048476;28;20268;-44
2023/09/16 11:57:52;;;;;;;;;;;;;;;;;;5031720;28;19920;-44
2023/09/16 12:00:18;;;;;;;;;;;;;;;;;;5049232;28;19919;-44
2023/09/16 12:02:45;;;;;;;;;;;;;;;;;;5049224;28;20006;-46
2023/09/16 12:05:11;;;;;;;;;;;;;;;;;;5048518;28;20357;-45
2023/09/16 12:07:37;;;;;;;;;;;;;;;;;;5048492;28;20012;-44
2023/09/16 12:10:03;;;;;;;;;;;;;;;;;;5048527;28;19909;-47
2023/09/16 12:12:28;;;;;;;;;;;;;;;;;;5030255;28;19919;-44
2023/09/16 12:14:55;;;;;;;;;;;;;;;;;;5048297;28;19975;-44
2023/09/16 12:17:22;;;;;;;;;;;;;;;;;;5048222;28;19913;-44
2023/09/16 12:19:47;;;;;;;;;;;;;;;;;;5048474;28;19916;-43
2023/09/16 12:22:14;;;;;;;;;;;;;;;;;;5048450;28;19913;-44
2023/09/16 12:24:39;;;;;;;;;;;;;;;;;;5028433;28;19913;-44
2023/09/16 12:27:05;;;;;;;;;;;;;;;;;;5028497;28;19916;-42
2023/09/16 12:29:31;;;;;;;;;;;;;;;;;;5027990;28;20457;-44
2023/09/16 12:31:57;;;;;;;;;;;;;;;;;;5028319;28;20051;-43
2023/09/16 12:34:23;;;;;;;;;;;;;;;;;;5027992;28;19936;-45
2023/09/16 12:36:49;;;;;;;;;;;;;;;;;;5038629;28;19913;-45
2023/09/16 12:39:15;;;;;;;;;;;;;;;;;;5047649;28;19924;-44
2023/09/16 12:41:43;;;;;;;;;;;;;;;;;;5048210;28;19915;-44
2023/09/16 12:44:09;;;;;;;;;;;;;;;;;;5030298;28;19963;-45
2023/09/16 12:46:35;;;;;;;;;;;;;;;;;;5047588;28;19936;-45
2023/09/16 12:49:00;;;;;;;;;;;;;;;;;;5048649;28;19905;-44
2023/09/16 12:51:26;;;;;;;;;;;;;;;;;;5047845;28;19909;-45
2023/09/16 12:53:52;;;;;;;;;;;;;;;;;;5048392;28;20019;-44
2023/09/16 12:56:18;;;;;;;;;;;;;;;;;;5047924;28;19948;-44
2023/09/16 12:58:44;;;;;;;;;;;;;;;;;;5047613;28;19935;-43
2023/09/16 13:01:10;;;;;;;;;;;;;;;;;;5046873;28;20422;-44
2023/09/16 13:03:38;;;;;;;;;;;;;;;;;;5046818;28;19913;-46
2023/09/16 13:06:04;;;;;;;;;;;;;;;;;;5047107;28;19955;-45
2023/09/16 13:08:30;;;;;;;;;;;;;;;;;;5047282;28;19913;-44
2023/09/16 13:10:56;;;;;;;;;;;;;;;;;;5048049;28;19916;-43
2023/09/16 13:13:24;;;;;;;;;;;;;;;;;;5046056;28;19958;-45
2023/09/16 13:15:50;;;;;;;;;;;;;;;;;;5047838;28;20395;-46
2023/09/16 13:18:16;;;;;;;;;;;;;;;;;;5045571;28;19954;-45
2023/09/16 13:20:42;;;;;;;;;;;;;;;;;;5047372;28;19958;-48
2023/09/16 13:23:08;;;;;;;;;;;;;;;;;;5047111;28;19956;-45
2023/09/16 13:25:41;;;;;;;;;;;;;;;;;;5046782;28;19909;-47
2023/09/16 13:28:07;;;;;;;;;;;;;;;;;;5047365;28;19909;-48
2023/09/16 13:30:33;;;;;;;;;;;;;;;;;;5029763;28;19916;-44
2023/09/16 13:32:59;;;;;;;;;;;;;;;;;;5047301;28;20043;-44
2023/09/16 13:35:24;;;;;;;;;;;;;;;;;;5046434;28;19916;-48
2023/09/16 13:37:50;;;;;;;;;;;;;;;;;;5046154;28;19920;-45
2023/09/16 13:40:18;;;;;;;;;;;;;;;;;;5029402;28;20017;-44
2023/09/16 13:42:44;;;;;;;;;;;;;;;;;;5047058;28;19932;-45
2023/09/16 13:45:10;;;;;;;;;;;;;;;;;;5047091;28;19917;-44
2023/09/16 13:47:36;;;;;;;;;;;;;;;;;;5046733;28;20472;-45
2023/09/16 13:50:02;;;;;;;;;;;;;;;;;;5047475;28;19913;-43
2023/09/16 13:52:28;;;;;;;;;;;;;;;;;;5046900;28;19908;-47
2023/09/16 13:54:54;;;;;;;;;;;;;;;;;;5029144;28;19946;-44
2023/09/16 13:57:20;;;;;;;;;;;;;;;;;;5045749;28;20647;-45
2023/09/16 13:59:45;;;;;;;;;;;;;;;;;;5046643;28;19913;-44
2023/09/16 14:02:12;;;;;;;;;;;;;;;;;;5045884;28;20434;-43
2023/09/16 14:04:38;;;;;;;;;;;;;;;;;;5046672;28;20422;-43
2023/09/16 14:07:04;;;;;;;;;;;;;;;;;;5046607;28;19920;-43
2023/09/16 14:09:30;;;;;;;;;;;;;;;;;;5046051;28;19920;-46
2023/09/16 14:11:55;;;;;;;;;;;;;;;;;;5046390;28;20291;-44
2023/09/16 14:14:21;;;;;;;;;;;;;;;;;;5046220;28;19948;-43
2023/09/16 14:16:49;;;;;;;;;;;;;;;;;;5046026;28;20393;-44
2023/09/16 14:19:15;;;;;;;;;;;;;;;;;;5046674;28;19913;-45
2023/09/16 14:21:41;;;;;;;;;;;;;;;;;;5046308;28;19947;-43
2023/09/16 14:24:07;;;;;;;;;;;;;;;;;;5046745;28;19979;-43
2023/09/16 14:26:34;;;;;;;;;;;;;;;;;;5044812;28;20171;-43
2023/09/16 14:29:00;;;;;;;;;;;;;;;;;;5045239;28;19909;-43
2023/09/16 14:31:26;;;;;;;;;;;;;;;;;;5045722;28;20291;-42
2023/09/16 14:33:52;;;;;;;;;;;;;;;;;;5046536;28;20284;-42
2023/09/16 14:36:18;;;;;;;;;;;;;;;;;;5046379;28;19916;-42
2023/09/16 14:38:44;;;;;;;;;;;;;;;;;;5046720;28;19905;-44
2023/09/16 14:41:09;;;;;;;;;;;;;;;;;;5045889;28;19962;-43
2023/09/16 14:43:35;;;;;;;;;;;;;;;;;;5046353;28;19919;-45
2023/09/16 14:46:01;;;;;;;;;;;;;;;;;;5046911;28;19909;-44
2023/09/16 14:48:27;;;;;;;;;;;;;;;;;;5045877;28;20003;-46
2023/09/16 14:50:53;;;;;;;;;;;;;;;;;;5046102;28;20000;-44
2023/09/16 14:53:22;;;;;;;;;;;;;;;;;;5046016;28;20414;-45
2023/09/16 14:55:48;;;;;;;;;;;;;;;;;;5046191;28;20410;-48
2023/09/16 14:58:14;;;;;;;;;;;;;;;;;;5048307;28;20368;-45
2023/09/16 15:00:40;;;;;;;;;;;;;;;;;;5049671;28;19999;-46
2023/09/16 15:03:06;;;;;;;;;;;;;;;;;;5049964;28;20110;-45
2023/09/16 15:05:32;;;;;;;;;;;;;;;;;;5050624;28;19935;-45
2023/09/16 15:07:58;;;;;;;;;;;;;;;;;;5049954;28;20425;-45
2023/09/16 15:10:24;;;;;;;;;;;;;;;;;;5048421;28;19915;-47
2023/09/16 15:12:50;;;;;;;;;;;;;;;;;;5050503;28;19916;-45
2023/09/16 15:15:16;;;;;;;;;;;;;;;;;;5049920;28;19913;-44
2023/09/16 15:17:42;;;;;;;;;;;;;;;;;;5049464;28;20166;-44
2023/09/16 15:20:10;;;;;;;;;;;;;;;;;;5048111;28;20011;-44
2023/09/16 15:22:36;;;;;;;;;;;;;;;;;;5049485;28;19992;-46
2023/09/16 15:25:02;;;;;;;;;;;;;;;;;;5049841;28;19989;-44
2023/09/16 15:27:28;;;;;;;;;;;;;;;;;;5049122;28;19909;-44
2023/09/16 15:29:54;;;;;;;;;;;;;;;;;;5049885;28;19921;-45
2023/09/16 15:32:20;;;;;;;;;;;;;;;;;;5050055;28;20448;-44
2023/09/16 15:34:46;;;;;;;;;;;;;;;;;;5050039;28;20326;-45
2023/09/16 15:37:12;;;;;;;;;;;;;;;;;;5049424;28;19913;-44
2023/09/16 15:39:38;;;;;;;;;;;;;;;;;;5048732;28;20007;-45
2023/09/16 15:42:03;;;;;;;;;;;;;;;;;;5049797;28;20330;-44
2023/09/16 15:44:29;;;;;;;;;;;;;;;;;;5048962;28;19921;-43
2023/09/16 15:46:57;;;;;;;;;;;;;;;;;;5049447;28;20422;-41
2023/09/16 15:49:23;;;;;;;;;;;;;;;;;;5050550;28;19963;-41
2023/09/16 15:51:49;;;;;;;;;;;;;;;;;;5051110;28;19908;-41
2023/09/16 15:54:15;;;;;;;;;;;;;;;;;;5049550;28;19939;-41
2023/09/16 15:56:41;;;;;;;;;;;;;;;;;;5049603;28;20007;-42
2023/09/16 15:59:07;;;;;;;;;;;;;;;;;;5050262;28;20448;-40
2023/09/16 16:01:33;;;;;;;;;;;;;;;;;;5050243;28;19909;-41
2023/09/16 16:03:59;;;;;;;;;;;;;;;;;;5050299;28;19999;-41
2023/09/16 16:06:24;;;;;;;;;;;;;;;;;;5050115;28;19909;-41
2023/09/16 16:08:50;;;;;;;;;;;;;;;;;;5049535;28;20264;-41
2023/09/16 16:11:16;;;;;;;;;;;;;;;;;;5050314;28;19952;-42
2023/09/16 16:13:42;;;;;;;;;;;;;;;;;;5049607;28;19916;-41
2023/09/16 16:16:11;;;;;;;;;;;;;;;;;;5049869;28;20372;-41
2023/09/16 16:18:37;;;;;;;;;;;;;;;;;;5049857;28;19951;-40
2023/09/16 16:21:03;;;;;;;;;;;;;;;;;;5050129;28;19912;-41
2023/09/16 16:23:29;;;;;;;;;;;;;;;;;;5049722;28;19905;-41
2023/09/16 16:25:55;;;;;;;;;;;;;;;;;;5031921;28;19909;-40
2023/09/16 16:28:20;;;;;;;;;;;;;;;;;;5049900;28;20027;-40
2023/09/16 16:30:47;;;;;;;;;;;;;;;;;;5049490;28;19949;-41
2023/09/16 16:33:13;;;;;;;;;;;;;;;;;;5049414;28;19920;-41
2023/09/16 16:35:39;;;;;;;;;;;;;;;;;;5049779;28;19909;-41
2023/09/16 16:38:05;;;;;;;;;;;;;;;;;;5044669;28;19913;-41
2023/09/16 16:40:31;;;;;;;;;;;;;;;;;;5049487;28;21110;-40
2023/09/16 16:42:59;;;;;;;;;;;;;;;;;;5050777;28;19982;-42
2023/09/16 16:45:25;;;;;;;;;;;;;;;;;;5049440;28;19916;-41
2023/09/16 16:47:52;;;;;;;;;;;;;;;;;;5046699;28;19912;-42
2023/09/16 16:50:18;;;;;;;;;;;;;;;;;;5064710;28;20014;-41
2023/09/16 16:52:44;;;;;;;;;;;;;;;;;;5052831;28;20427;-40
2023/09/16 16:55:10;;;;;;;;;;;;;;;;;;5049123;28;19913;-40
2023/09/16 16:57:37;;;;;;;;;;;;;;;;;;5048981;28;19912;-40
2023/09/16 17:00:06;;;;;;;;;;;;;;;;;;5049241;28;20011;-41
2023/09/16 17:02:31;;;;;;;;;;;;;;;;;;5049116;28;19908;-41
2023/09/16 17:04:57;;;;;;;;;;;;;;;;;;5049019;28;19909;-41
2023/09/16 17:07:23;;;;;;;;;;;;;;;;;;5049028;28;19939;-41
2023/09/16 17:09:49;;;;;;;;;;;;;;;;;;5049712;28;19916;-44
2023/09/16 17:12:15;;;;;;;;;;;;;;;;;;5048532;28;20295;-42
2023/09/16 17:14:41;;;;;;;;;;;;;;;;;;5048133;28;19912;-41
2023/09/16 17:17:07;;;;;;;;;;;;;;;;;;5047698;28;19966;-41
2023/09/16 17:19:33;;;;;;;;;;;;;;;;;;5047884;28;19954;-41
2023/09/16 17:21:59;;;;;;;;;;;;;;;;;;5054602;28;19960;-43
2023/09/16 17:24:24;;;;;;;;;;;;;;;;;;5047752;28;20007;-43
2023/09/16 17:26:53;;;;;;;;;;;;;;;;;;5047923;28;20375;-41
2023/09/16 17:29:19;;;;;;;;;;;;;;;;;;5045215;28;19919;-41
2023/09/16 17:31:45;;;;;;;;;;;;;;;;;;5030069;28;20306;-42
2023/09/16 17:34:14;;;;;;;;;;;;;;;;;;5047377;28;19917;-41
2023/09/16 17:36:39;;;;;;;;;;;;;;;;;;5045893;28;19919;-40
2023/09/16 17:39:05;;;;;;;;;;;;;;;;;;5047620;28;20379;-40
2023/09/16 17:41:31;;;;;;;;;;;;;;;;;;5047401;28;19916;-41
2023/09/16 17:43:57;;;;;;;;;;;;;;;;;;5046462;28;19917;-40
2023/09/16 17:46:23;;;;;;;;;;;;;;;;;;5046396;28;20007;-40
2023/09/16 17:48:49;;;;;;;;;;;;;;;;;;5046000;28;19912;-41
2023/09/16 17:51:15;;;;;;;;;;;;;;;;;;5044584;28;19917;-40
2023/09/16 17:53:41;;;;;;;;;;;;;;;;;;5027406;28;19952;-40
2023/09/16 17:56:07;;;;;;;;;;;;;;;;;;5018900;28;20400;-40
2023/09/16 17:58:34;;;;;;;;;;;;;;;;;;5044594;28;19912;-41
2023/09/16 18:01:00;;;;;;;;;;;;;;;;;;5044079;28;19968;-40
2023/09/16 18:03:26;;;;;;;;;;;;;;;;;;5044896;28;19968;-41
2023/09/16 18:05:52;;;;;;;;;;;;;;;;;;5041852;28;19920;-41
2023/09/16 18:08:18;;;;;;;;;;;;;;;;;;5039935;28;19924;-42
2023/09/16 18:10:44;;;;;;;;;;;;;;;;;;5043242;28;19946;-43
2023/09/16 18:13:10;;;;;;;;;;;;;;;;;;5039957;28;19913;-42
2023/09/16 18:15:36;;;;;;;;;;;;;;;;;;5041562;28;19920;-42
2023/09/16 18:18:03;;;;;;;;;;;;;;;;;;5023630;28;19920;-44
2023/09/16 18:20:29;;;;;;;;;;;;;;;;;;5042510;28;19913;-42
2023/09/16 18:22:55;;;;;;;;;;;;;;;;;;5043127;28;20014;-42
2023/09/16 18:25:22;;;;;;;;;;;;;;;;;;5041472;28;19924;-42
2023/09/16 18:27:48;;;;;;;;;;;;;;;;;;5041846;28;19920;-43
2023/09/16 18:30:14;;;;;;;;;;;;;;;;;;5043179;28;19913;-44
2023/09/16 18:32:39;;;;;;;;;;;;;;;;;;5016701;28;19921;-43
2023/09/16 18:35:05;;;;;;;;;;;;;;;;;;5043205;28;19963;-42
2023/09/16 18:37:31;;;;;;;;;;;;;;;;;;5026285;28;20390;-42
2023/09/16 18:39:57;;;;;;;;;;;;;;;;;;5025850;28;19913;-43
2023/09/16 18:42:23;;;;;;;;;;;;;;;;;;5043738;28;19936;-42
2023/09/16 18:44:49;;;;;;;;;;;;;;;;;;5046187;28;19916;-42
2023/09/16 18:47:15;;;;;;;;;;;;;;;;;;5044410;28;19920;-42
2023/09/16 18:49:41;;;;;;;;;;;;;;;;;;5045595;28;19919;-42
2023/09/16 18:52:07;;;;;;;;;;;;;;;;;;5044256;28;20014;-44
2023/09/16 18:54:34;;;;;;;;;;;;;;;;;;5043892;28;19923;-42
2023/09/16 18:56:59;;;;;;;;;;;;;;;;;;5042812;28;19920;-42
2023/09/16 18:59:25;;;;;;;;;;;;;;;;;;5043793;28;19913;-43
2023/09/16 19:01:51;;;;;;;;;;;;;;;;;;5044479;28;20156;-42
2023/09/16 19:04:17;;;;;;;;;;;;;;;;;;5042212;28;20453;-52
2023/09/16 19:06:43;;;;;;;;;;;;;;;;;;5043491;28;20004;-54
2023/09/16 19:09:11;;;;;;;;;;;;;;;;;;5024068;28;19917;-53
2023/09/16 19:11:37;;;;;;;;;;;;;;;;;;5042626;28;20464;-52
2023/09/16 19:14:03;;;;;;;;;;;;;;;;;;5025112;28;19921;-53
2023/09/16 19:16:31;;;;;;;;;;;;;;;;;;5043068;28;20069;-53
2023/09/16 19:18:57;;;;;;;;;;;;;;;;;;5025945;28;19913;-55
2023/09/16 19:21:23;;;;;;;;;;;;;;;;;;5045727;28;19912;-55
2023/09/16 19:23:49;;;;;;;;;;;;;;;;;;5045923;28;19909;-55
2023/09/16 19:26:15;;;;;;;;;;;;;;;;;;5045334;28;20384;-55
2023/09/16 19:28:41;;;;;;;;;;;;;;;;;;5027776;28;19948;-53
2023/09/16 19:31:07;;;;;;;;;;;;;;;;;;5044288;28;20383;-55
2023/09/16 19:33:32;;;;;;;;;;;;;;;;;;5027821;28;19940;-56
2023/09/16 19:36:00;;;;;;;;;;;;;;;;;;5045448;28;19979;-55
2023/09/16 19:38:26;;;;;;;;;;;;;;;;;;5045507;28;20299;-55
2023/09/16 19:40:52;;;;;;;;;;;;;;;;;;5042382;28;19924;-54
2023/09/16 19:43:18;;;;;;;;;;;;;;;;;;5043613;28;19923;-53
2023/09/16 19:45:44;;;;;;;;;;;;;;;;;;5048336;28;19924;-55
2023/09/16 19:48:10;;;;;;;;;;;;;;;;;;5050549;28;19909;-54
2023/09/16 19:50:35;;;;;;;;;;;;;;;;;;5049548;28;19913;-53
2023/09/16 19:53:03;;;;;;;;;;;;;;;;;;5050901;28;20079;-55
2023/09/16 19:55:29;;;;;;;;;;;;;;;;;;5049554;28;19917;-55
2023/09/16 19:57:55;;;;;;;;;;;;;;;;;;5049617;28;20387;-52
2023/09/16 20:00:22;;;;;;;;;;;;;;;;;;5049044;28;19920;-53
2023/09/16 20:02:48;;;;;;;;;;;;;;;;;;5050132;28;19913;-53
2023/09/16 20:05:14;;;;;;;;;;;;;;;;;;5049086;28;19978;-54
2023/09/16 20:07:39;;;;;;;;;;;;;;;;;;5067971;28;19913;-55
2023/09/16 20:10:06;;;;;;;;;;;;;;;;;;5066063;28;20021;-54
2023/09/16 20:12:32;;;;;;;;;;;;;;;;;;5050361;28;20290;-54
2023/09/16 20:14:57;;;;;;;;;;;;;;;;;;5049784;28;20418;-54
2023/09/16 20:17:23;;;;;;;;;;;;;;;;;;5048357;28;19923;-55
2023/09/16 20:19:52;;;;;;;;;;;;;;;;;;5049691;28;19963;-54
2023/09/16 20:22:18;;;;;;;;;;;;;;;;;;5048195;28;19926;-54
2023/09/16 20:24:44;;;;;;;;;;;;;;;;;;5049204;28;19909;-55
2023/09/16 20:27:11;;;;;;;;;;;;;;;;;;5046277;28;19917;-55
2023/09/16 20:29:39;;;;;;;;;;;;;;;;;;5048907;28;19959;-54
2023/09/16 20:32:05;;;;;;;;;;;;;;;;;;5048630;28;19913;-55
2023/09/16 20:34:31;;;;;;;;;;;;;;;;;;5050028;28;19913;-55
2023/09/16 20:36:57;;;;;;;;;;;;;;;;;;5031498;28;19909;-54
2023/09/16 20:39:23;;;;;;;;;;;;;;;;;;5049053;28;19920;-54
2023/09/16 20:41:49;;;;;;;;;;;;;;;;;;5048154;28;19920;-53
2023/09/16 20:44:15;;;;;;;;;;;;;;;;;;5048872;28;20084;-54
2023/09/16 20:46:41;;;;;;;;;;;;;;;;;;5046845;28;19944;-54
2023/09/16 20:49:07;;;;;;;;;;;;;;;;;;5049026;28;19964;-53
2023/09/16 20:51:33;;;;;;;;;;;;;;;;;;5044229;28;19913;-53
2023/09/16 20:53:59;;;;;;;;;;;;;;;;;;5047701;28;19917;-52
2023/09/16 20:56:24;;;;;;;;;;;;;;;;;;5046953;28;19913;-55
2023/09/16 20:58:51;;;;;;;;;;;;;;;;;;5047900;28;19920;-54
2023/09/16 21:01:17;;;;;;;;;;;;;;;;;;5048381;28;19934;-53
2023/09/16 21:03:43;;;;;;;;;;;;;;;;;;5044842;28;19991;-55
2023/09/16 21:06:09;;;;;;;;;;;;;;;;;;5046589;28;20348;-53
2023/09/16 21:08:35;;;;;;;;;;;;;;;;;;5030886;28;19913;-54
2023/09/16 21:11:01;;;;;;;;;;;;;;;;;;5049450;28;20341;-55
2023/09/16 21:13:27;;;;;;;;;;;;;;;;;;5045400;28;20570;-56
2023/09/16 21:15:53;;;;;;;;;;;;;;;;;;5049096;28;19920;-55
2023/09/16 21:18:19;;;;;;;;;;;;;;;;;;5048846;28;19981;-55
2023/09/16 21:20:45;;;;;;;;;;;;;;;;;;5049004;28;20337;-54
2023/09/16 21:23:11;;;;;;;;;;;;;;;;;;5048952;28;19909;-55
2023/09/16 21:25:39;;;;;;;;;;;;;;;;;;5048583;28;19908;-56
2023/09/16 21:28:05;;;;;;;;;;;;;;;;;;5048518;28;19909;-56
2023/09/16 21:30:30;;;;;;;;;;;;;;;;;;5049807;28;19909;-53
2023/09/16 21:32:57;;;;;;;;;;;;;;;;;;5050073;28;20383;-56
2023/09/16 21:35:23;;;;;;;;;;;;;;;;;;5049662;28;19917;-55
2023/09/16 21:37:49;;;;;;;;;;;;;;;;;;5049781;28;19954;-55
2023/09/16 21:40:15;;;;;;;;;;;;;;;;;;5049416;28;19916;-55
2023/09/16 21:42:41;;;;;;;;;;;;;;;;;;5049303;28;19920;-55
2023/09/16 21:45:07;;;;;;;;;;;;;;;;;;5049430;28;19924;-55
2023/09/16 21:47:33;;;;;;;;;;;;;;;;;;5049494;28;20046;-55
2023/09/16 21:49:59;;;;;;;;;;;;;;;;;;5050322;28;20359;-54
2023/09/16 21:52:25;;;;;;;;;;;;;;;;;;5049446;28;20361;-54
2023/09/16 21:54:51;;;;;;;;;;;;;;;;;;5049297;28;19912;-55
2023/09/16 21:57:17;;;;;;;;;;;;;;;;;;5049021;28;19909;-55
2023/09/16 21:59:44;;;;;;;;;;;;;;;;;;5049420;28;19916;-55
2023/09/16 22:02:10;;;;;;;;;;;;;;;;;;5031172;28;20502;-55
2023/09/16 22:04:36;;;;;;;;;;;;;;;;;;5049022;28;19974;-55